Friday, April 25, 2014
02:25 UTC
  |  Log In   |  Register Free
Airport Search:

Durant Regional - Eaker Field Airport
(KDUA)

Durant Regional - Eaker Field Airport Diagram
No Airport Diagram Available

FAA data valid effective April 3, 2014 until May 29, 2014 (unless otherwise noted).

 
 
 
 
 
 
 
 
 
 
 
 
 
 

Current Aviation Weather for Durant Regional - Eaker Field Airport (KDUA)

The most recent METAR observation for KDUA was updated at: 0135 UTC
METAR Summary (Translated METAR)
KDUA
250135Z AUTO 33006KT 10SM CLR 20/07 A2991 RMK AO2
KGYI
(19.5 nm SW from KDUA)
250135Z AUTO 35007KT 10SM CLR 20/05 A2991 RMK AO2 T01950051
TAF
No TAF information found within 50 nm of KDUA
  Airport Weather Conditions for KDUA

 Current Weather at DUA
68° F
Fair
Northwest winds at 6.9 mph
DUA NOAA Radar

Pressure: 29.91 in
Humidity: 43%
Wind: Northwest at 6.9 MPH (6 KT)
Dew Point: 44.6°F
Visibility: 10.00 mi


Airport Weather Forecast for KDUA

Translated METAR and TAF for KDUA
Translated METAR for KDUA (0225 UTC 25 April 2014)
found at http://aviationweather.gov/adds/metars/
 
METAR text: KDUA 250215Z AUTO 34005KT 10SM CLR 18/07 A2993 RMK AO2
Conditions at: KDUA (DURANT , OK, US) observed 0215 UTC 25 April 2014
Temperature: 18.0°C (64°F)
Dewpoint: 7.0°C (45°F) [RH = 49%]
Pressure (altimeter): 29.93 inches Hg (1013.6 mb)
Winds: from the NNW (340 degrees) at 6 MPH (5 knots; 2.6 m/s)
Visibility: 10 or more miles (16+ km)
Ceiling: at least 12,000 feet AGL
Clouds: sky clear below 12,000 feet AGL
Weather: automated observation with no human augmentation;
there may or may not be significant weather present at this time
Translated TAF for KDUA

There is no translated TAF available for this airport

Find All Airport Services Find A Hotel Find A Rental Car Find A Golf Course Find A Restaurant $100 Hamburger



FBO's on the Field
FBO Company Facility Photos Services Transportation Aviation Fuel Prices: Prices include tax
Catering Weather Repair Courtesy Rental Type 100LL JetA JetA+ MOGAS 8087
 
D/W Aviation

This FBO has not yet been rated
FS:Avfuel
Last Updated: Apr-02
Login to update fuel prices
SS:
Contact D/W AviationMore FBO Information
 
Add another FBO Facility Photos Catering Weather Repair Courtesy Rental Type 100LL JetA JetA+ MOGAS 8087
Services Transportation Aviation Fuel Prices: Prices include tax


GlobalAir.com Airport Resource Center model-print
model-print
model-print
model-print